Time;durP1;ratioP1;P1;durP2;ratioP2;P2;SDS_P1;SDS_P2;PMS_P1;PMS_P2;Temp;Humidity;BMP_temperature;BMP_pressure;BME280_temperature;BME280_humidity;BME280_pressure;Samples;Min_cycle;Max_cycle;Signal;HPM_P1;HPM_P2
2022/02/28 00:01:44;;;;;;;65.30;61.78;;;;;;;-1.14;100.00;102933.84;5025316;28;20053;-81
2022/02/28 00:04:21;;;;;;;72.85;68.95;;;;;;;-1.12;100.00;102923.84;5025753;28;20054;-81
2022/02/28 00:06:54;;;;;;;71.90;68.03;;;;;;;-1.17;100.00;102917.25;5025650;28;20847;-81
2022/02/28 00:09:23;;;;;;;70.55;66.75;;;;;;;-1.12;100.00;102929.19;5033146;28;20292;-81
2022/02/28 00:11:56;;;;;;;72.38;68.47;;;;;;;-1.14;100.00;102919.63;5023702;28;20045;-81
2022/02/28 00:14:29;;;;;;;76.78;72.68;;;;;;;-1.04;100.00;102923.97;5023756;28;20045;-81
2022/02/28 00:17:03;;;;;;;80.30;76.05;;;;;;;-1.10;100.00;102918.34;5039274;28;20057;-81
2022/02/28 00:19:37;;;;;;;81.63;77.32;;;;;;;-1.10;100.00;102921.88;5024383;28;20057;-81
2022/02/28 00:22:05;;;;;;;78.50;74.32;;;;;;;-1.14;100.00;102923.13;5024423;28;20041;-81
2022/02/28 00:24:39;;;;;;;79.88;75.63;;;;;;;-1.16;100.00;102916.25;5025186;28;20056;-82
2022/02/28 00:27:07;;;;;;;81.15;76.85;;;;;;;-1.17;100.00;102914.56;5029533;28;20046;-81
2022/02/28 00:29:40;;;;;;;81.18;76.90;;;;;;;-1.23;100.00;102916.00;5030664;28;20045;-83
2022/02/28 00:32:14;;;;;;;83.07;78.68;;;;;;;-1.20;100.00;102918.41;5030514;28;20046;-82
2022/02/28 00:34:48;;;;;;;83.90;79.45;;;;;;;-1.22;100.00;102915.84;5031365;28;20048;-82
2022/02/28 00:37:22;;;;;;;90.80;86.05;;;;;;;-1.27;100.00;102902.09;5029750;28;20050;-82
2022/02/28 00:39:50;;;;;;;85.10;80.63;;;;;;;-1.25;100.00;102912.63;5029213;28;20393;-82
2022/02/28 00:42:23;;;;;;;90.75;85.97;;;;;;;-1.25;100.00;102915.31;5025960;28;20041;-81
2022/02/28 00:44:51;;;;;;;89.03;84.32;;;;;;;-1.28;100.00;102916.44;5031114;28;20046;-81
2022/02/28 00:47:25;;;;;;;87.35;82.75;;;;;;;-1.37;100.00;102901.28;5030399;28;20064;-81
2022/02/28 00:49:54;;;;;;;92.72;87.88;;;;;;;-1.30;100.00;102912.22;5028789;28;20057;-82
2022/02/28 00:52:22;;;;;;;90.43;85.70;;;;;;;-1.33;100.00;102910.69;5018253;28;20056;-81
2022/02/28 00:54:56;;;;;;;92.20;87.40;;;;;;;-1.33;100.00;102904.50;5044588;28;20053;-82
2022/02/28 00:57:29;;;;;;;93.03;88.18;;;;;;;-1.33;100.00;102904.50;5025895;28;20045;-81
2022/02/28 00:59:57;;;;;;;96.38;91.35;;;;;;;-1.32;100.00;102906.19;5036068;28;20520;-82
2022/02/28 01:02:26;;;;;;;95.63;90.63;;;;;;;-1.33;100.00;102896.50;5036457;28;20490;-82
2022/02/28 01:05:00;;;;;;;96.70;91.63;;;;;;;-1.37;100.00;102899.47;5019702;28;20046;-82
2022/02/28 01:07:33;;;;;;;98.40;93.30;;;;;;;-1.41;100.00;102892.72;5026973;28;20042;-81
2022/02/28 01:10:09;;;;;;;97.25;92.15;;;;;;;-1.49;100.00;102881.94;5016956;28;20046;-81
2022/02/28 01:12:42;;;;;;;97.35;92.25;;;;;;;-1.38;100.00;102908.47;5031112;28;20053;-81
2022/02/28 01:15:18;;;;;;;98.95;93.75;;;;;;;-1.42;100.00;102898.22;5039377;28;20056;-81
2022/02/28 01:17:51;;;;;;;104.80;99.32;;;;;;;-1.47;100.00;102895.97;5030182;28;20046;-81
2022/02/28 01:20:26;;;;;;;103.88;98.47;;;;;;;-1.48;100.00;102896.94;5030522;28;20053;-82
2022/02/28 01:22:54;;;;;;;107.47;101.93;;;;;;;-1.57;100.00;102890.66;5036623;28;20045;-81
2022/02/28 01:25:27;;;;;;;103.72;98.28;;;;;;;-1.51;100.00;102894.56;5030277;28;20702;-82
2022/02/28 01:28:01;;;;;;;111.55;105.75;;;;;;;-1.58;100.00;102885.47;5035515;28;20045;-81
2022/02/28 01:30:34;;;;;;;111.38;105.57;;;;;;;-1.58;100.00;102882.78;5034412;28;20508;-82
2022/02/28 01:33:02;;;;;;;107.85;102.20;;;;;;;-1.58;100.00;102888.97;5035330;28;20048;-81
2022/02/28 01:35:32;;;;;;;117.43;111.35;;;;;;;-1.61;100.00;102886.59;5029669;28;20060;-81
2022/02/28 01:38:06;;;;;;;118.68;112.53;;;;;;;-1.69;100.00;102891.81;5030200;28;20548;-82
2022/02/28 01:40:35;;;;;;;117.75;111.65;;;;;;;-1.69;100.00;102893.66;5021398;28;20050;-81
2022/02/28 01:43:08;;;;;;;118.53;112.35;;;;;;;-1.70;100.00;102895.47;5022560;28;20052;-82
2022/02/28 01:45:36;;;;;;;123.55;117.13;;;;;;;-1.70;100.00;102895.47;5030382;28;20041;-82
2022/02/28 01:48:09;;;;;;;126.80;120.28;;;;;;;-1.78;100.00;102893.53;5027840;28;20049;-82
2022/02/28 01:50:44;;;;;;;119.15;112.95;;;;;;;-1.79;100.00;102899.84;5035593;28;20052;-82
2022/02/28 01:53:12;;;;;;;128.88;122.18;;;;;;;-1.78;100.00;102890.84;5027220;28;20514;-81
2022/02/28 01:55:45;;;;;;;125.97;119.38;;;;;;;-1.81;100.00;102884.94;5033545;28;20129;-81
2022/02/28 01:58:18;;;;;;;132.18;125.30;;;;;;;-1.95;100.00;102862.22;5021112;28;20049;-82
2022/02/28 02:00:51;;;;;;;134.52;127.50;;;;;;;-1.80;100.00;102894.66;5024172;28;20042;-82
2022/02/28 02:03:25;;;;;;;138.77;131.55;;;;;;;-1.82;100.00;102894.78;5031121;28;20076;-81
2022/02/28 02:06:00;;;;;;;138.88;131.65;;;;;;;-1.82;100.00;102899.25;5026457;28;20049;-81
2022/02/28 02:08:28;;;;;;;138.27;131.05;;;;;;;-1.87;100.00;102891.69;5030394;28;20057;-81
2022/02/28 02:10:57;;;;;;;140.65;133.30;;;;;;;-1.95;100.00;102879.06;5027747;28;20045;-81
2022/02/28 02:13:31;;;;;;;144.38;136.82;;;;;;;-1.91;100.00;102888.47;5027811;28;20053;-81
2022/02/28 02:16:05;;;;;;;142.60;135.15;;;;;;;-1.89;100.00;102881.16;5037969;28;20041;-81
2022/02/28 02:18:38;;;;;;;147.23;139.50;;;;;;;-1.88;100.00;102880.19;5016722;28;20053;-82
2022/02/28 02:21:08;;;;;;;145.75;138.07;;;;;;;-1.97;100.00;102862.34;5025616;28;20061;-81
2022/02/28 02:23:36;;;;;;;150.57;142.63;;;;;;;-1.93;100.00;102877.09;5025502;28;20401;-81
2022/02/28 02:26:14;;;;;;;153.75;145.60;;;;;;;-1.93;100.00;102881.59;5032952;28;20050;-81
2022/02/28 02:28:47;;;;;;;154.68;146.48;;;;;;;-1.92;100.00;102883.28;5044811;28;20045;-81
2022/02/28 02:31:20;;;;;;;161.02;152.45;;;;;;;-1.87;100.00;102886.34;5030009;28;20056;-81
2022/02/28 02:33:51;;;;;;;164.60;155.88;;;;;;;-1.87;100.00;102886.34;5030420;28;20437;-81
2022/02/28 02:36:26;;;;;;;159.55;151.05;;;;;;;-1.92;100.00;102892.13;5024940;28;20068;-81
2022/02/28 02:38:59;;;;;;;165.60;156.70;;;;;;;-2.02;100.00;102867.28;5029752;28;20049;-81
2022/02/28 02:41:32;;;;;;;165.52;156.65;;;;;;;-1.99;100.00;102885.69;5030092;28;20041;-81
2022/02/28 02:44:06;;;;;;;163.98;155.20;;;;;;;-1.97;100.00;102886.38;5033642;28;20533;-81
2022/02/28 02:46:46;;;;;;;180.82;171.07;;;;;;;-1.98;100.00;102890.00;5027506;28;20037;-81
2022/02/28 02:49:23;;;;;;;181.02;171.32;;;;;;;-2.05;100.00;102892.41;5035625;28;20052;-82
2022/02/28 02:51:58;;;;;;;179.02;169.35;;;;;;;-2.05;100.00;102886.25;5033855;28;20041;-81
2022/02/28 02:54:29;;;;;;;196.02;185.60;;;;;;;-2.02;100.00;102883.28;5024153;28;20495;-81
2022/02/28 02:57:03;;;;;;;195.60;185.10;;;;;;;-2.05;100.00;102887.06;5035643;28;20438;-81
2022/02/28 02:59:36;;;;;;;194.35;183.90;;;;;;;-2.10;100.00;102885.81;5028442;28;20057;-81
2022/02/28 03:02:05;;;;;;;212.23;200.85;;;;;;;-2.12;100.00;102887.78;5041977;28;20053;-81
2022/02/28 03:04:33;;;;;;;225.63;213.55;;;;;;;-2.12;100.00;102893.97;5041261;28;20046;-82
2022/02/28 03:07:02;;;;;;;218.60;206.80;;;;;;;-2.12;100.00;102885.13;5026696;28;20053;-81
2022/02/28 03:09:36;;;;;;;241.32;228.48;;;;;;;-2.14;100.00;102889.75;5048284;28;20048;-82
2022/02/28 03:12:05;;;;;;;248.82;235.52;;;;;;;-2.15;100.00;102893.41;5026024;28;20045;-81
2022/02/28 03:14:38;;;;;;;253.73;240.05;;;;;;;-2.17;100.00;102882.03;5050804;28;20038;-82
2022/02/28 03:17:11;;;;;;;261.40;247.43;;;;;;;-2.19;100.00;102890.19;5030814;28;20057;-82
2022/02/28 03:19:44;;;;;;;267.48;253.05;;;;;;;-2.25;100.00;102888.91;5025904;28;20390;-81
2022/02/28 03:22:19;;;;;;;276.13;261.17;;;;;;;-2.27;100.00;102887.38;5047354;28;20052;-82
2022/02/28 03:24:53;;;;;;;294.42;278.55;;;;;;;-2.31;100.00;102885.97;5034097;28;20041;-82
2022/02/28 03:27:26;;;;;;;301.98;285.52;;;;;;;-2.31;100.00;102878.78;5026690;28;20061;-81
2022/02/28 03:29:59;;;;;;;301.33;284.85;;;;;;;-2.33;100.00;102880.78;5033250;28;20053;-82
2022/02/28 03:32:33;;;;;;;306.05;288.98;;;;;;;-2.30;100.00;102882.31;5033467;28;20374;-81
2022/02/28 03:35:08;;;;;;;324.27;306.30;;;;;;;-2.58;100.00;102836.84;5031263;28;20052;-81
2022/02/28 03:37:43;;;;;;;316.10;298.55;;;;;;;-2.36;100.00;102875.72;5024889;28;20045;-82
2022/02/28 03:40:16;;;;;;;320.42;302.63;;;;;;;-2.36;100.00;102875.72;5030674;28;20060;-82
2022/02/28 03:42:49;;;;;;;325.60;307.45;;;;;;;-2.38;100.00;102864.34;5021986;28;20050;-82
2022/02/28 03:45:23;;;;;;;319.15;301.40;;;;;;;-2.36;100.00;102866.84;5031492;28;20052;-82
2022/02/28 03:47:56;;;;;;;331.58;312.88;;;;;;;-2.35;100.00;102866.72;5032421;28;20060;-82
2022/02/28 03:50:48;;;;;;;328.77;310.30;;;;;;;-2.36;100.00;102858.84;5034786;28;20050;-82
2022/02/28 03:53:17;;;;;;;342.40;323.05;;;;;;;-2.32;100.00;102869.13;5035205;28;20057;-83
2022/02/28 03:55:50;;;;;;;345.88;326.15;;;;;;;-2.34;100.00;102859.56;5027979;28;20510;-82
2022/02/28 03:58:24;;;;;;;347.00;327.25;;;;;;;-2.35;100.00;102857.88;5023648;28;20053;-82
2022/02/28 04:00:52;;;;;;;364.05;342.95;;;;;;;-2.36;100.00;102853.53;5028137;28;20049;-82
2022/02/28 04:03:26;;;;;;;366.40;345.00;;;;;;;-2.37;100.00;102855.38;5034283;28;20068;-82
2022/02/28 04:05:59;;;;;;;379.08;356.55;;;;;;;-2.34;100.00;102857.75;5030199;28;20050;-83
2022/02/28 04:08:33;;;;;;;382.52;359.67;;;;;;;-2.47;100.00;102839.38;5032356;28;20050;-82
2022/02/28 04:11:03;;;;;;;383.55;360.65;;;;;;;-2.36;100.00;102848.19;5028699;28;20046;-82
2022/02/28 04:13:36;;;;;;;400.17;376.00;;;;;;;-2.42;100.00;102846.94;5023335;28;20041;-82
2022/02/28 04:16:04;;;;;;;395.80;372.08;;;;;;;-2.39;100.00;102859.97;5048502;28;20033;-82
2022/02/28 04:18:38;;;;;;;420.23;394.27;;;;;;;-2.31;100.00;102852.13;5024873;28;20049;-83
2022/02/28 04:21:24;;;;;;;408.85;383.83;;;;;;;-2.50;100.00;102838.78;5032523;28;20054;-82
2022/02/28 04:23:54;;;;;;;437.73;410.60;;;;;;;-2.42;100.00;102836.25;5040570;28;20599;-83
2022/02/28 04:26:27;;;;;;;462.58;434.08;;;;;;;-2.47;100.00;102833.16;5031236;28;20049;-82
2022/02/28 04:29:00;;;;;;;498.42;466.88;;;;;;;-2.38;100.00;102842.16;5025156;28;20061;-82
2022/02/28 04:31:34;;;;;;;507.38;475.05;;;;;;;-2.59;100.00;102803.97;5035741;28;20045;-83
2022/02/28 04:34:08;;;;;;;529.72;495.60;;;;;;;-2.44;100.00;102832.91;5031472;28;20057;-82
2022/02/28 04:36:37;;;;;;;543.92;508.67;;;;;;;-2.45;100.00;102834.72;5029543;28;20045;-82
2022/02/28 04:39:07;;;;;;;580.22;541.78;;;;;;;-2.47;100.00;102835.84;5027860;28;20037;-82
2022/02/28 04:41:35;;;;;;;583.13;544.28;;;;;;;-2.47;100.00;102835.84;5029557;28;20053;-83
2022/02/28 04:44:09;;;;;;;604.75;563.78;;;;;;;-2.48;100.00;102832.34;5039995;28;20057;-82
2022/02/28 04:46:42;;;;;;;632.58;589.80;;;;;;;-2.48;100.00;102832.34;5032353;28;20041;-82
2022/02/28 04:49:36;;;;;;;613.85;572.30;;;;;;;-2.54;100.00;102830.25;5012548;28;20057;-83
2022/02/28 04:52:06;;;;;;;587.22;548.47;;;;;;;-2.57;100.00;102826.03;5032082;28;20525;-83
2022/02/28 04:54:40;;;;;;;582.42;543.58;;;;;;;-2.59;100.00;102825.31;5029113;28;20044;-82
2022/02/28 04:57:09;;;;;;;571.75;534.38;;;;;;;-2.59;100.00;102819.16;5036160;28;20406;-83
2022/02/28 04:59:43;;;;;;;558.47;522.00;;;;;;;-2.60;100.00;102820.13;5029133;28;20398;-83
2022/02/28 05:02:18;;;;;;;527.00;493.10;;;;;;;-2.66;100.00;102815.38;5031505;28;20049;-83
2022/02/28 05:04:53;;;;;;;516.83;483.95;;;;;;;-2.64;100.00;102824.06;5031245;28;20521;-82
2022/02/28 05:07:27;;;;;;;508.52;476.52;;;;;;;-2.73;100.00;102815.06;5026834;28;20076;-82
2022/02/28 05:09:58;;;;;;;481.08;450.52;;;;;;;-2.71;100.00;102826.41;5021417;28;20060;-82
2022/02/28 05:12:31;;;;;;;465.88;436.33;;;;;;;-2.81;100.00;102825.59;5031603;28;20045;-83
2022/02/28 05:15:07;;;;;;;468.75;439.05;;;;;;;-2.77;100.00;102833.16;5018921;28;20042;-82
2022/02/28 05:17:41;;;;;;;507.63;474.67;;;;;;;-2.68;100.00;102828.84;5036219;28;20044;-82
2022/02/28 05:20:14;;;;;;;543.38;508.08;;;;;;;-2.80;100.00;102809.44;5037243;28;20678;-82
2022/02/28 05:22:42;;;;;;;553.05;516.63;;;;;;;-2.74;100.00;102827.53;5031739;28;20038;-82
2022/02/28 05:25:17;;;;;;;576.83;538.45;;;;;;;-2.76;100.00;102820.69;5028901;28;20410;-83
2022/02/28 05:27:52;;;;;;;622.60;580.88;;;;;;;-2.62;100.00;102838.09;5028759;28;20045;-82
2022/02/28 05:30:25;;;;;;;646.40;602.65;;;;;;;-2.67;100.00;102838.50;5035905;28;20053;-82
2022/02/28 05:32:58;;;;;;;711.53;662.35;;;;;;;-2.66;100.00;102834.84;5034493;28;20517;-82
2022/02/28 05:35:33;;;;;;;775.80;721.42;;;;;;;-2.67;100.00;102835.00;5027312;28;20056;-82
2022/02/28 05:38:15;;;;;;;837.83;778.38;;;;;;;-2.69;100.00;102832.47;5030389;28;20054;-83
2022/02/28 05:40:53;;;;;;;906.15;840.50;;;;;;;-2.68;100.00;102831.50;5023697;28;20053;-82
2022/02/28 05:43:32;;;;;;;987.67;913.38;;;;;;;-2.55;100.00;102841.88;5012090;28;20073;-82
2022/02/28 05:46:07;;;;;;;1024.20;945.88;;;;;;;-2.74;100.00;102835.53;5048429;28;20057;-82
2022/02/28 05:48:51;;;;;;;1036.80;956.80;;;;;;;-2.63;100.00;102847.06;5024050;28;20068;-82
2022/02/28 05:51:31;;;;;;;1063.13;979.97;;;;;;;-2.69;100.00;102850.28;5031915;28;20045;-82
2022/02/28 05:54:05;;;;;;;1115.40;999.90;;;;;;;-2.60;100.00;102854.78;5019299;28;20419;-82
2022/02/28 05:56:39;;;;;;;1145.88;999.90;;;;;;;-2.57;100.00;102842.03;5028891;28;20061;-82
2022/02/28 05:59:12;;;;;;;1156.68;999.90;;;;;;;-2.54;100.00;102851.56;5027479;28;20053;-82
2022/02/28 06:01:45;;;;;;;1163.18;999.90;;;;;;;-2.57;100.00;102851.81;5031085;28;20049;-82
2022/02/28 06:04:18;;;;;;;1174.82;999.90;;;;;;;-2.61;100.00;102853.09;5033687;28;20644;-82
2022/02/28 06:06:52;;;;;;;1172.40;999.90;;;;;;;-2.66;100.00;102850.84;5036836;28;20046;-82
2022/02/28 06:09:20;;;;;;;1184.28;999.90;;;;;;;-2.71;100.00;102836.25;5029828;28;20053;-82
2022/02/28 06:11:50;;;;;;;1186.07;999.90;;;;;;;-2.71;100.00;102861.06;5036101;28;20048;-82
2022/02/28 06:14:23;;;;;;;1191.22;999.90;;;;;;;-2.71;100.00;102836.25;5032815;28;20410;-82
2022/02/28 06:16:56;;;;;;;1196.38;999.90;;;;;;;-2.67;100.00;102846.50;5034054;28;20056;-82
2022/02/28 06:19:25;;;;;;;1194.38;999.90;;;;;;;-2.60;100.00;102849.44;5048629;28;20049;-83
2022/02/28 06:21:58;;;;;;;1198.22;999.90;;;;;;;-2.70;100.00;102860.09;5026820;28;20049;-82
2022/02/28 06:24:27;;;;;;;1202.13;999.90;;;;;;;-2.68;100.00;102852.81;5030469;28;20048;-82
2022/02/28 06:27:01;;;;;;;1204.32;999.90;;;;;;;-2.62;100.00;102862.09;5035347;28;20501;-82
2022/02/28 06:29:30;;;;;;;1206.72;999.90;;;;;;;-2.65;100.00;102867.66;5038294;28;20041;-82
2022/02/28 06:31:58;;;;;;;1207.35;999.90;;;;;;;-2.67;100.00;102862.47;5037186;28;20065;-81
2022/02/28 06:34:31;;;;;;;1215.72;999.90;;;;;;;-2.51;100.00;102863.75;5020360;28;20494;-82
2022/02/28 06:37:04;;;;;;;1216.32;999.90;;;;;;;-2.63;100.00;102873.72;5031444;28;20382;-82
2022/02/28 06:39:33;;;;;;;1212.97;999.90;;;;;;;-2.60;100.00;102871.59;5034228;28;20045;-82
2022/02/28 06:42:09;;;;;;;1212.47;999.90;;;;;;;-2.68;100.00;102873.28;5030301;28;20056;-82
2022/02/28 06:44:42;;;;;;;1218.70;999.90;;;;;;;-2.52;100.00;102875.44;5026433;28;20048;-82
2022/02/28 06:47:15;;;;;;;1218.47;999.90;;;;;;;-2.60;100.00;102868.09;5038800;28;20490;-82
2022/02/28 06:49:49;;;;;;;1221.95;999.90;;;;;;;-2.60;100.00;102876.94;5028633;28;20493;-82
2022/02/28 06:52:23;;;;;;;1225.15;999.90;;;;;;;-2.61;100.00;102867.28;5030474;28;20056;-81
2022/02/28 06:54:53;;;;;;;1227.22;999.90;;;;;;;-2.58;100.00;102875.00;5029554;28;20046;-81
2022/02/28 06:57:27;;;;;;;1228.65;999.90;;;;;;;-2.52;100.00;102870.94;5041786;28;20067;-82
2022/02/28 07:00:00;;;;;;;1230.38;999.90;;;;;;;-2.59;100.00;102854.63;5024581;28;20053;-82
2022/02/28 07:02:29;;;;;;;1232.72;999.90;;;;;;;-2.46;100.00;102875.72;5028228;28;20403;-83
2022/02/28 07:05:10;;;;;;;1235.55;999.90;;;;;;;-2.53;100.00;102884.41;5028646;28;20045;-83
2022/02/28 07:07:43;;;;;;;1236.07;999.90;;;;;;;-2.65;100.00;102879.19;5025775;28;20413;-82
2022/02/28 07:10:17;;;;;;;1239.57;999.90;;;;;;;-2.53;100.00;102877.22;5028591;28;20485;-83
2022/02/28 07:12:51;;;;;;;1244.10;999.90;;;;;;;-2.41;100.00;102864.63;5030051;28;20052;-83
2022/02/28 07:15:25;;;;;;;1240.10;999.90;;;;;;;-2.41;100.00;102867.28;5025040;28;20074;-82
2022/02/28 07:18:00;;;;;;;1244.03;999.90;;;;;;;-2.40;100.00;102872.47;5031447;28;20061;-84
2022/02/28 07:20:31;;;;;;;1240.35;999.90;;;;;;;-2.35;100.00;102879.22;5030867;28;20053;-84
2022/02/28 07:23:05;;;;;;;1243.63;999.90;;;;;;;-2.33;100.00;102864.78;5027128;28;20049;-82
2022/02/28 07:25:34;;;;;;;1242.15;999.90;;;;;;;-2.35;100.00;102871.22;5020732;28;20053;-83
2022/02/28 07:28:05;;;;;;;1246.93;999.90;;;;;;;-2.34;100.00;102870.25;5024453;28;20061;-83
2022/02/28 07:30:33;;;;;;;1247.05;999.90;;;;;;;-2.46;100.00;102869.53;5030561;28;20540;-83
2022/02/28 07:33:06;;;;;;;1244.15;999.90;;;;;;;-2.34;100.00;102868.41;5018033;28;20482;-83
2022/02/28 07:35:35;;;;;;;1247.53;999.90;;;;;;;-2.32;100.00;102869.13;5022498;28;20049;-83
2022/02/28 07:38:09;;;;;;;1247.63;999.90;;;;;;;-2.23;100.00;102865.59;5017503;28;20061;-83
2022/02/28 07:40:37;;;;;;;1247.97;999.90;;;;;;;-2.17;100.00;102858.03;5013827;28;20275;-83
2022/02/28 07:43:06;;;;;;;1249.53;999.90;;;;;;;-2.06;100.00;102864.06;5013908;28;20053;-82
2022/02/28 07:45:34;;;;;;;1248.03;999.90;;;;;;;-2.12;100.00;102863.78;5017599;28;20057;-82
2022/02/28 07:48:07;;;;;;;1255.85;999.90;;;;;;;-2.13;100.00;102868.25;5009859;28;20053;-82
2022/02/28 07:50:40;;;;;;;1253.43;999.90;;;;;;;-2.19;100.00;102878.69;5011336;28;20062;-82
2022/02/28 07:53:09;;;;;;;1257.30;999.90;;;;;;;-2.17;100.00;102860.69;5016014;28;20057;-84
2022/02/28 07:55:42;;;;;;;1257.35;999.90;;;;;;;-2.03;100.00;102878.09;5014122;28;20057;-84
2022/02/28 07:58:11;;;;;;;1260.35;999.90;;;;;;;-2.08;100.00;102879.34;5010560;28;20057;-83
2022/02/28 08:00:39;;;;;;;1262.80;999.90;;;;;;;-2.05;100.00;102881.72;5015260;28;20072;-84
2022/02/28 08:03:13;;;;;;;1267.20;999.90;;;;;;;-1.97;100.00;102886.38;5006800;28;20065;-82
2022/02/28 08:05:46;;;;;;;1270.10;999.90;;;;;;;-1.92;100.00;102888.59;5005788;28;20233;-82
2022/02/28 08:08:19;;;;;;;1269.20;999.90;;;;;;;-1.88;100.00;102879.34;5015762;28;20050;-84
2022/02/28 08:10:52;;;;;;;1272.30;999.90;;;;;;;-1.85;100.00;102887.06;5011548;28;20064;-82
2022/02/28 08:13:22;;;;;;;1278.40;999.90;;;;;;;-1.82;100.00;102894.78;5012911;28;20069;-81
2022/02/28 08:15:57;;;;;;;1275.70;999.90;;;;;;;-1.88;100.00;102896.22;5009590;28;20077;-82
2022/02/28 08:18:30;;;;;;;1277.95;999.90;;;;;;;-1.86;100.00;102879.19;5012106;28;20056;-82
2022/02/28 08:21:03;;;;;;;1280.07;999.90;;;;;;;-1.74;100.00;102894.06;4996013;28;20068;-82
2022/02/28 08:23:37;;;;;;;1283.78;999.90;;;;;;;-1.61;100.00;102888.44;5005849;28;20056;-82
2022/02/28 08:26:10;;;;;;;1283.70;999.90;;;;;;;-1.69;100.00;102878.47;5012221;28;20049;-82
2022/02/28 08:28:44;;;;;;;1280.63;999.90;;;;;;;-1.65;100.00;102885.19;5009762;28;20053;-82
2022/02/28 08:31:17;;;;;;;1284.90;999.90;;;;;;;-1.65;100.00;102889.72;5009919;28;20053;-82
2022/02/28 08:33:46;;;;;;;1284.53;999.90;;;;;;;-1.60;100.00;102888.28;5005813;28;20053;-83
2022/02/28 08:36:14;;;;;;;1289.00;999.90;;;;;;;-1.57;100.00;102898.66;5010401;28;20517;-82
2022/02/28 08:38:47;;;;;;;1286.68;999.90;;;;;;;-1.57;100.00;102906.69;5004790;28;21340;-84
2022/02/28 08:41:20;;;;;;;1288.25;999.90;;;;;;;-1.52;100.00;102900.06;5013864;28;20057;-83
2022/02/28 08:43:50;;;;;;;1290.97;999.90;;;;;;;-1.53;100.00;102896.56;5012467;28;20068;-84
2022/02/28 08:46:23;;;;;;;1292.53;999.90;;;;;;;-1.48;100.00;102901.47;5005133;28;20501;-83
2022/02/28 08:48:51;;;;;;;1293.80;999.90;;;;;;;-1.40;100.00;102904.25;5012788;28;20895;-83
2022/02/28 08:51:25;;;;;;;1290.65;999.90;;;;;;;-1.48;100.00;102901.47;5015858;28;20057;-84
2022/02/28 08:53:58;;;;;;;1295.70;999.90;;;;;;;-1.51;100.00;102907.09;5007309;28;20052;-83
2022/02/28 08:56:31;;;;;;;1294.88;999.90;;;;;;;-1.45;100.00;102902.03;5010058;28;21443;-84
2022/02/28 08:59:06;;;;;;;1299.15;999.90;;;;;;;-1.38;100.00;102905.78;5009328;28;21270;-84
2022/02/28 09:01:34;;;;;;;1304.18;999.90;;;;;;;-1.28;100.00;102908.44;5018421;28;20042;-84
2022/02/28 09:04:07;;;;;;;1302.95;999.90;;;;;;;-1.30;100.00;102906.88;5006068;28;21473;-83
2022/02/28 09:06:41;;;;;;;1304.32;999.90;;;;;;;-1.22;100.00;102905.16;5002924;28;21668;-83
2022/02/28 09:09:14;;;;;;;1307.95;999.90;;;;;;;-1.21;100.00;102908.69;5017965;28;20049;-82
2022/02/28 09:11:47;;;;;;;1306.18;999.90;;;;;;;-1.19;100.00;102914.72;5010157;28;20639;-82
2022/02/28 09:14:21;;;;;;;1307.63;999.90;;;;;;;-1.15;100.00;102918.78;5010870;28;20049;-83
2022/02/28 09:16:54;;;;;;;1308.35;999.90;;;;;;;-1.19;100.00;102904.03;5013464;28;20042;-81
2022/02/28 09:19:24;;;;;;;1313.32;999.90;;;;;;;-1.06;100.00;102911.72;5015180;28;20045;-83
2022/02/28 09:21:57;;;;;;;1314.13;999.90;;;;;;;-1.07;100.00;102916.22;5005277;28;20070;-82
2022/02/28 09:24:28;;;;;;;1317.80;999.90;;;;;;;-0.96;100.00;102901.00;5003510;28;20052;-82
2022/02/28 09:27:01;;;;;;;1320.28;999.90;;;;;;;-1.06;100.00;102915.22;5003035;28;20053;-83
2022/02/28 09:29:36;;;;;;;1325.78;999.90;;;;;;;-0.97;100.00;102918.00;5010189;28;20037;-83
2022/02/28 09:32:09;;;;;;;1329.47;999.90;;;;;;;-0.94;100.00;102920.38;5015361;28;20062;-83
2022/02/28 09:34:43;;;;;;;1330.82;999.90;;;;;;;-0.91;100.00;102923.63;5008383;28;20055;-83
2022/02/28 09:37:16;;;;;;;1329.20;999.90;;;;;;;-0.89;100.00;102916.28;5005678;28;20951;-83
2022/02/28 09:39:49;;;;;;;1336.13;999.90;;;;;;;-0.88;100.00;102934.00;5008754;28;20095;-83
2022/02/28 09:42:39;;;;;;;1340.10;999.90;;;;;;;-0.78;100.00;102927.78;5008258;28;21440;-83
2022/02/28 09:45:32;;;;;;;1344.07;999.90;;;;;;;-0.67;100.00;102932.09;5017856;28;20053;-82
2022/02/28 09:48:25;;;;;;;1347.93;999.90;;;;;;;-0.67;100.00;102932.91;5012814;28;20073;-83
2022/02/28 09:51:17;;;;;;;1352.78;999.90;;;;;;;-0.79;100.00;102936.78;5021020;28;20595;-82
2022/02/28 09:54:09;;;;;;;1360.60;999.90;;;;;;;-0.71;100.00;102948.41;5022732;28;20061;-82
2022/02/28 09:57:07;;;;;;;1369.72;999.90;;;;;;;-0.59;100.00;102940.22;5013041;28;20061;-81
2022/02/28 09:59:56;;;;;;;1372.63;999.90;;;;;;;-0.60;100.00;102951.88;5010119;28;20080;-83
2022/02/28 10:02:28;;;;;;;1376.53;999.90;;;;;;;-0.52;100.00;102946.63;5016607;28;20058;-82
2022/02/28 10:05:01;;;;;;;1383.67;999.90;;;;;;;-0.45;100.00;102939.69;5013834;28;20258;-82
2022/02/28 10:07:34;;;;;;;1393.25;999.90;;;;;;;-0.40;100.00;102939.22;5007746;28;20338;-82
2022/02/28 10:10:09;;;;;;;1405.38;999.90;;;;;;;-0.32;100.00;102944.66;5011560;28;20041;-82
2022/02/28 10:12:43;;;;;;;1415.60;999.90;;;;;;;-0.29;100.00;102952.41;5015470;28;20057;-81
2022/02/28 10:15:19;;;;;;;1424.72;999.90;;;;;;;-0.23;100.00;102954.47;5009675;28;20076;-81
2022/02/28 10:17:55;;;;;;;1431.70;999.90;;;;;;;-0.21;100.00;102949.81;5013284;28;20553;-82
2022/02/28 10:20:30;;;;;;;1442.00;999.90;;;;;;;-0.25;100.00;102945.75;5011411;28;20053;-82
2022/02/28 10:23:06;;;;;;;1444.25;999.90;;;;;;;-0.28;100.00;102946.03;5015570;28;20056;-82
2022/02/28 10:25:48;;;;;;;1451.50;999.90;;;;;;;-0.26;100.00;102949.41;5008616;28;20046;-82
2022/02/28 10:28:36;;;;;;;1461.85;999.90;;;;;;;-0.16;100.00;102951.19;5010677;28;20049;-84
2022/02/28 10:31:40;;;;;;;1463.60;999.90;;;;;;;-0.24;100.00;102949.25;5038241;28;20061;-82
2022/02/28 10:37:47;;;;;;;1480.78;999.90;;;;;;;0.05;100.00;102958.91;5019403;28;20057;-85
2022/02/28 10:40:32;;;;;;;1487.50;999.90;;;;;;;0.03;100.00;102959.06;5011773;28;20053;-82
2022/02/28 10:43:06;;;;;;;1489.50;999.90;;;;;;;0.02;100.00;102938.63;5012340;28;20056;-84
2022/02/28 10:45:40;;;;;;;1501.13;999.90;;;;;;;0.00;100.00;102959.38;5007712;28;20049;-83
2022/02/28 10:48:13;;;;;;;1505.97;999.90;;;;;;;0.03;100.00;102968.91;5010379;28;20065;-84
2022/02/28 10:50:43;;;;;;;1530.28;999.90;;;;;;;0.13;100.00;102953.63;5014184;28;20053;-84
2022/02/28 10:53:17;;;;;;;1544.75;999.90;;;;;;;0.11;100.00;102960.97;5014145;28;20072;-84
2022/02/28 10:55:52;;;;;;;1565.15;999.90;;;;;;;0.16;100.00;102961.34;5009539;28;20069;-84
2022/02/28 10:58:29;;;;;;;;;;;;;;;0.23;100.00;102965.09;5009832;28;20069;-82
2022/02/28 11:01:04;;;;;;;1578.25;999.90;;;;;;;0.31;100.00;102953.63;5013788;28;19929;-83
2022/02/28 11:03:45;;;;;;;1592.93;999.90;;;;;;;0.39;100.00;102959.03;5008887;28;20484;-83
2022/02/28 11:06:20;;;;;;;1615.30;999.90;;;;;;;0.46;100.00;102944.00;5008989;28;20717;-85
2022/02/28 11:08:54;;;;;;;1623.20;999.90;;;;;;;0.54;100.00;102958.47;5006910;28;20056;-83
2022/02/28 11:11:27;;;;;;;1637.95;999.90;;;;;;;0.62;100.00;102955.84;5008783;28;20041;-85
2022/02/28 11:13:55;;;;;;;1645.63;999.90;;;;;;;0.48;100.00;102941.16;5017535;28;20793;-85
2022/02/28 11:16:30;;;;;;;1686.72;999.90;;;;;;;0.72;100.00;102961.09;5012527;28;20073;-84